sensor_id;sensor_type;location;lat;lon;timestamp;pressure;altitude;pressure_sealevel;temperature;humidity
8280;BME280;8335;42.646;23.380;2023-02-23T00:00:23;143408.63;;;7.34;71.80
8280;BME280;8335;42.646;23.380;2023-02-23T00:02:53;143429.69;;;7.42;71.72
8280;BME280;8335;42.646;23.380;2023-02-23T00:05:24;143432.22;;;7.43;71.44
8280;BME280;8335;42.646;23.380;2023-02-23T00:07:51;143429.69;;;7.42;72.00
8280;BME280;8335;42.646;23.380;2023-02-23T00:10:20;143429.69;;;7.42;72.64
8280;BME280;8335;42.646;23.380;2023-02-23T00:12:50;143434.69;;;7.44;71.49
8280;BME280;8335;42.646;23.380;2023-02-23T00:15:17;143432.22;;;7.43;71.45
8280;BME280;8335;42.646;23.380;2023-02-23T00:17:44;143426.00;;;7.41;71.96
8280;BME280;8335;42.646;23.380;2023-02-23T00:20:12;143406.16;;;7.33;72.09
8280;BME280;8335;42.646;23.380;2023-02-23T00:22:42;143359.03;;;7.13;73.16
8280;BME280;8335;42.646;23.380;2023-02-23T00:25:10;143339.22;;;7.05;74.29
8280;BME280;8335;42.646;23.380;2023-02-23T00:27:37;143333.03;;;7.03;74.22
8280;BME280;8335;42.646;23.380;2023-02-23T00:30:11;143323.09;;;6.99;75.17
8280;BME280;8335;42.646;23.380;2023-02-23T00:32:38;143273.50;;;6.78;74.32
8280;BME280;8335;42.646;23.380;2023-02-23T00:35:06;143316.91;;;6.96;75.41
8280;BME280;8335;42.646;23.380;2023-02-23T00:37:37;143306.97;;;6.92;74.98
8280;BME280;8335;42.646;23.380;2023-02-23T00:40:06;143295.84;;;6.87;75.11
8280;BME280;8335;42.646;23.380;2023-02-23T00:42:44;143293.38;;;6.86;75.76
8280;BME280;8335;42.646;23.380;2023-02-23T00:45:12;143285.94;;;6.83;75.62
8280;BME280;8335;42.646;23.380;2023-02-23T00:47:40;143267.34;;;6.76;75.82
8280;BME280;8335;42.646;23.380;2023-02-23T00:50:09;143250.00;;;6.69;76.69
8280;BME280;8335;42.646;23.380;2023-02-23T00:52:38;143235.13;;;6.62;76.43
8280;BME280;8335;42.646;23.380;2023-02-23T00:55:08;143228.94;;;6.60;76.19
8280;BME280;8335;42.646;23.380;2023-02-23T00:57:35;143191.78;;;6.45;77.12
8280;BME280;8335;42.646;23.380;2023-02-23T01:00:03;143195.47;;;6.46;77.32
8280;BME280;8335;42.646;23.380;2023-02-23T01:02:38;143179.38;;;6.40;78.20
8280;BME280;8335;42.646;23.380;2023-02-23T01:05:07;143162.03;;;6.32;78.08
8280;BME280;8335;42.646;23.380;2023-02-23T01:07:34;143163.25;;;6.33;78.28
8280;BME280;8335;42.646;23.380;2023-02-23T01:10:00;143147.16;;;6.26;78.88
8280;BME280;8335;42.646;23.380;2023-02-23T01:12:33;143140.97;;;6.24;78.95
8280;BME280;8335;42.646;23.380;2023-02-23T01:15:00;143142.22;;;6.24;78.88
8280;BME280;8335;42.646;23.380;2023-02-23T01:17:27;143132.28;;;6.20;78.99
8280;BME280;8335;42.646;23.380;2023-02-23T01:19:55;143124.88;;;6.17;79.13
8280;BME280;8335;42.646;23.380;2023-02-23T01:22:21;143123.63;;;6.17;79.92
8280;BME280;8335;42.646;23.380;2023-02-23T01:24:48;143134.75;;;6.21;79.21
8280;BME280;8335;42.646;23.380;2023-02-23T01:27:15;143124.88;;;6.17;79.86
8280;BME280;8335;42.646;23.380;2023-02-23T01:29:43;143139.75;;;6.23;79.33
8280;BME280;8335;42.646;23.380;2023-02-23T01:32:10;143159.56;;;6.31;78.96
8280;BME280;8335;42.646;23.380;2023-02-23T01:34:36;143159.56;;;6.31;78.71
8280;BME280;8335;42.646;23.380;2023-02-23T01:37:03;143171.97;;;6.37;78.94
8280;BME280;8335;42.646;23.380;2023-02-23T01:39:31;143152.09;;;6.28;78.14
8280;BME280;8335;42.646;23.380;2023-02-23T01:41:58;143194.25;;;6.46;78.60
8280;BME280;8335;42.646;23.380;2023-02-23T01:47:30;143201.66;;;6.49;77.93
8280;BME280;8335;42.646;23.380;2023-02-23T01:49:57;143216.53;;;6.55;78.24
8280;BME280;8335;42.646;23.380;2023-02-23T01:52:23;143225.22;;;6.58;77.64
8280;BME280;8335;42.646;23.380;2023-02-23T01:54:52;143232.63;;;6.61;77.62
8280;BME280;8335;42.646;23.380;2023-02-23T01:57:22;143228.94;;;6.60;77.04
8280;BME280;8335;42.646;23.380;2023-02-23T01:59:51;143235.13;;;6.62;76.92
8280;BME280;8335;42.646;23.380;2023-02-23T02:02:21;143194.25;;;6.46;76.88
8280;BME280;8335;42.646;23.380;2023-02-23T02:04:50;143232.63;;;6.61;77.05
8280;BME280;8335;42.646;23.380;2023-02-23T02:07:19;143220.25;;;6.56;76.69
8280;BME280;8335;42.646;23.380;2023-02-23T02:09:47;143215.28;;;6.54;77.51
8280;BME280;8335;42.646;23.380;2023-02-23T02:12:44;143212.81;;;6.53;77.33
8280;BME280;8335;42.646;23.380;2023-02-23T02:15:12;143211.59;;;6.53;76.72
8280;BME280;8335;42.646;23.380;2023-02-23T02:17:47;143197.94;;;6.47;77.25
8280;BME280;8335;42.646;23.380;2023-02-23T02:24:16;143144.69;;;6.25;77.58
8280;BME280;8335;42.646;23.380;2023-02-23T02:27:00;143128.59;;;6.19;78.64
8280;BME280;8335;42.646;23.380;2023-02-23T02:33:14;143086.50;;;6.01;78.77
8280;BME280;8335;42.646;23.380;2023-02-23T02:36:17;143053.00;;;5.88;80.12
8280;BME280;8335;42.646;23.380;2023-02-23T02:38:54;143015.88;;;5.72;80.08
8280;BME280;8335;42.646;23.380;2023-02-23T02:41:32;143026.97;;;5.77;80.27
8280;BME280;8335;42.646;23.380;2023-02-23T02:44:08;143015.88;;;5.72;80.53
8280;BME280;8335;42.646;23.380;2023-02-23T02:46:38;143012.13;;;5.71;80.88
8280;BME280;8335;42.646;23.380;2023-02-23T02:49:09;142999.78;;;5.66;81.50
8280;BME280;8335;42.646;23.380;2023-02-23T02:51:42;142998.53;;;5.65;81.31
8280;BME280;8335;42.646;23.380;2023-02-23T02:54:21;142978.69;;;5.57;81.74
8280;BME280;8335;42.646;23.380;2023-02-23T02:56:50;142971.28;;;5.54;82.05
8280;BME280;8335;42.646;23.380;2023-02-23T02:59:22;142972.50;;;5.55;81.99
8280;BME280;8335;42.646;23.380;2023-02-23T03:02:13;142913.13;;;5.30;81.78
8280;BME280;8335;42.646;23.380;2023-02-23T03:04:58;142963.88;;;5.51;82.12
8280;BME280;8335;42.646;23.380;2023-02-23T03:07:49;142939.09;;;5.41;82.61
8280;BME280;8335;42.646;23.380;2023-02-23T03:10:41;142936.63;;;5.40;83.11
8280;BME280;8335;42.646;23.380;2023-02-23T03:13:35;142930.44;;;5.37;82.80
8280;BME280;8335;42.646;23.380;2023-02-23T03:16:27;142914.34;;;5.31;83.37
8280;BME280;8335;42.646;23.380;2023-02-23T03:19:17;142904.44;;;5.27;83.72
8280;BME280;8335;42.646;23.380;2023-02-23T03:22:10;142890.81;;;5.21;83.90
8280;BME280;8335;42.646;23.380;2023-02-23T03:25:03;142869.78;;;5.12;84.33
8280;BME280;8335;42.646;23.380;2023-02-23T03:27:53;142879.72;;;5.16;84.71
8280;BME280;8335;42.646;23.380;2023-02-23T03:30:46;142831.44;;;4.96;84.97
8280;BME280;8335;42.646;23.380;2023-02-23T03:33:38;142833.91;;;4.97;85.25
8280;BME280;8335;42.646;23.380;2023-02-23T03:36:26;142853.69;;;5.06;85.56
8280;BME280;8335;42.646;23.380;2023-02-23T03:39:17;142851.22;;;5.05;85.73
8280;BME280;8335;42.646;23.380;2023-02-23T03:42:08;142858.69;;;5.08;85.59
8280;BME280;8335;42.646;23.380;2023-02-23T03:44:55;142859.91;;;5.08;85.82
8280;BME280;8335;42.646;23.380;2023-02-23T03:47:41;142864.84;;;5.10;85.06
8280;BME280;8335;42.646;23.380;2023-02-23T03:50:30;142874.78;;;5.14;85.47
8280;BME280;8335;42.646;23.380;2023-02-23T03:53:18;142859.91;;;5.08;85.36
8280;BME280;8335;42.646;23.380;2023-02-23T03:56:08;142850.00;;;5.04;85.28
8280;BME280;8335;42.646;23.380;2023-02-23T03:58:58;142861.16;;;5.09;85.50
8280;BME280;8335;42.646;23.380;2023-02-23T04:01:44;142857.44;;;5.07;85.42
8280;BME280;8335;42.646;23.380;2023-02-23T04:04:30;142871.03;;;5.13;85.63
8280;BME280;8335;42.646;23.380;2023-02-23T04:07:17;142883.41;;;5.18;85.35
8280;BME280;8335;42.646;23.380;2023-02-23T04:10:03;142889.59;;;5.20;85.36
8280;BME280;8335;42.646;23.380;2023-02-23T04:12:55;142895.81;;;5.23;84.83
8280;BME280;8335;42.646;23.380;2023-02-23T04:15:46;142899.50;;;5.24;84.99
8280;BME280;8335;42.646;23.380;2023-02-23T04:18:15;142906.91;;;5.28;84.62
8280;BME280;8335;42.646;23.380;2023-02-23T04:20:43;142908.16;;;5.28;84.16
8280;BME280;8335;42.646;23.380;2023-02-23T04:23:09;142916.81;;;5.32;84.00
8280;BME280;8335;42.646;23.380;2023-02-23T04:25:36;142920.53;;;5.33;84.28
8280;BME280;8335;42.646;23.380;2023-02-23T04:28:03;142921.75;;;5.34;84.23
8280;BME280;8335;42.646;23.380;2023-02-23T04:30:30;142916.81;;;5.32;84.55
8280;BME280;8335;42.646;23.380;2023-02-23T04:32:57;142913.13;;;5.30;84.56
8280;BME280;8335;42.646;23.380;2023-02-23T04:35:27;142913.13;;;5.30;84.61
8280;BME280;8335;42.646;23.380;2023-02-23T04:37:55;142919.28;;;5.33;84.68
8280;BME280;8335;42.646;23.380;2023-02-23T04:40:22;142931.69;;;5.38;84.43
8280;BME280;8335;42.646;23.380;2023-02-23T04:42:49;142926.69;;;5.36;84.52
8280;BME280;8335;42.646;23.380;2023-02-23T04:45:16;142937.84;;;5.40;84.62
8280;BME280;8335;42.646;23.380;2023-02-23T04:47:43;142942.78;;;5.42;84.54
8280;BME280;8335;42.646;23.380;2023-02-23T04:50:11;142944.03;;;5.43;84.76
8280;BME280;8335;42.646;23.380;2023-02-23T04:52:39;142937.84;;;5.40;84.48
8280;BME280;8335;42.646;23.380;2023-02-23T04:55:07;142925.47;;;5.35;84.70
8280;BME280;8335;42.646;23.380;2023-02-23T04:57:34;142927.97;;;5.36;84.80
8280;BME280;8335;42.646;23.380;2023-02-23T05:00:02;142924.22;;;5.35;84.46
8280;BME280;8335;42.646;23.380;2023-02-23T05:02:29;142908.16;;;5.28;84.52
8280;BME280;8335;42.646;23.380;2023-02-23T05:04:56;142919.28;;;5.33;84.47
8280;BME280;8335;42.646;23.380;2023-02-23T05:07:23;142909.38;;;5.29;83.98
8280;BME280;8335;42.646;23.380;2023-02-23T05:09:51;142906.91;;;5.28;84.82
8280;BME280;8335;42.646;23.380;2023-02-23T05:12:17;142900.72;;;5.25;84.78
8280;BME280;8335;42.646;23.380;2023-02-23T05:14:44;142903.19;;;5.26;84.82
8280;BME280;8335;42.646;23.380;2023-02-23T05:17:11;142887.09;;;5.19;84.97
8280;BME280;8335;42.646;23.380;2023-02-23T05:19:38;142894.56;;;5.22;85.40
8280;BME280;8335;42.646;23.380;2023-02-23T05:22:05;142903.19;;;5.26;85.03
8280;BME280;8335;42.646;23.380;2023-02-23T05:24:32;142895.81;;;5.23;85.42
8280;BME280;8335;42.646;23.380;2023-02-23T05:27:01;142900.72;;;5.25;85.06
8280;BME280;8335;42.646;23.380;2023-02-23T05:29:27;142874.78;;;5.14;85.05
8280;BME280;8335;42.646;23.380;2023-02-23T05:31:54;142867.31;;;5.11;85.20
8280;BME280;8335;42.646;23.380;2023-02-23T05:34:21;142854.94;;;5.06;85.55
8280;BME280;8335;42.646;23.380;2023-02-23T05:36:48;142817.81;;;4.91;86.26
8280;BME280;8335;42.646;23.380;2023-02-23T05:39:15;142811.66;;;4.88;86.68
8280;BME280;8335;42.646;23.380;2023-02-23T05:41:41;142826.50;;;4.94;86.82
8280;BME280;8335;42.646;23.380;2023-02-23T05:44:09;142832.69;;;4.97;87.19
8280;BME280;8335;42.646;23.380;2023-02-23T05:46:36;142828.97;;;4.95;86.85
8280;BME280;8335;42.646;23.380;2023-02-23T05:49:03;142848.75;;;5.04;86.47
8280;BME280;8335;42.646;23.380;2023-02-23T05:51:33;142853.69;;;5.06;86.75
8280;BME280;8335;42.646;23.380;2023-02-23T05:54:00;142854.94;;;5.06;86.69
8280;BME280;8335;42.646;23.380;2023-02-23T05:56:27;142868.56;;;5.12;86.61
8280;BME280;8335;42.646;23.380;2023-02-23T05:58:55;142877.25;;;5.15;86.10
8280;BME280;8335;42.646;23.380;2023-02-23T06:01:24;142890.81;;;5.21;86.52
8280;BME280;8335;42.646;23.380;2023-02-23T06:03:51;142944.03;;;5.43;86.49
8280;BME280;8335;42.646;23.380;2023-02-23T06:06:18;143071.63;;;5.95;84.40
8280;BME280;8335;42.646;23.380;2023-02-23T06:08:45;143263.63;;;6.74;79.84
8280;BME280;8335;42.646;23.380;2023-02-23T06:11:11;143433.44;;;7.44;75.01
8280;BME280;8335;42.646;23.380;2023-02-23T06:13:38;143619.47;;;8.20;71.86
8280;BME280;8335;42.646;23.380;2023-02-23T06:16:06;143794.50;;;8.92;68.04
8280;BME280;8335;42.646;23.380;2023-02-23T06:18:35;144031.72;;;9.89;63.54
8280;BME280;8335;42.646;23.380;2023-02-23T06:21:02;144203.28;;;10.60;60.69
8280;BME280;8335;42.646;23.380;2023-02-23T06:23:29;144355.00;;;11.22;58.11
8280;BME280;8335;42.646;23.380;2023-02-23T06:25:56;144513.03;;;11.87;55.48
8280;BME280;8335;42.646;23.380;2023-02-23T06:28:24;144697.25;;;12.62;52.78
8280;BME280;8335;42.646;23.380;2023-02-23T06:30:51;144884.13;;;13.38;50.41
8280;BME280;8335;42.646;23.380;2023-02-23T06:33:18;145053.63;;;14.08;48.29
8280;BME280;8335;42.646;23.380;2023-02-23T06:35:46;145180.84;;;14.59;46.16
8280;BME280;8335;42.646;23.380;2023-02-23T06:38:13;145335.53;;;15.23;44.59
8280;BME280;8335;42.646;23.380;2023-02-23T06:40:39;145464.09;;;15.75;43.44
8280;BME280;8335;42.646;23.380;2023-02-23T06:43:07;145570.22;;;16.18;41.50
8280;BME280;8335;42.646;23.380;2023-02-23T06:45:34;145697.63;;;16.70;40.73
8280;BME280;8335;42.646;23.380;2023-02-23T06:48:00;145768.81;;;16.99;39.75
8280;BME280;8335;42.646;23.380;2023-02-23T06:50:28;145932.56;;;17.66;39.14
8280;BME280;8335;42.646;23.380;2023-02-23T06:52:56;146206.47;;;18.78;37.39
8280;BME280;8335;42.646;23.380;2023-02-23T06:55:23;146356.66;;;19.39;35.87
8280;BME280;8335;42.646;23.380;2023-02-23T06:57:50;146514.44;;;20.03;34.98
8280;BME280;8335;42.646;23.380;2023-02-23T07:00:19;146605.84;;;20.40;33.87
8280;BME280;8335;42.646;23.380;2023-02-23T07:02:46;146651.00;;;20.58;33.43
8280;BME280;8335;42.646;23.380;2023-02-23T07:05:12;146642.22;;;20.55;33.47
8280;BME280;8335;42.646;23.380;2023-02-23T07:07:39;146643.47;;;20.55;33.36
8280;BME280;8335;42.646;23.380;2023-02-23T07:10:09;146671.03;;;20.67;33.51
8280;BME280;8335;42.646;23.380;2023-02-23T07:12:36;146677.28;;;20.69;33.26
8280;BME280;8335;42.646;23.380;2023-02-23T07:15:03;146781.28;;;21.11;32.86
8280;BME280;8335;42.646;23.380;2023-02-23T07:17:30;146870.31;;;21.48;32.03
8280;BME280;8335;42.646;23.380;2023-02-23T07:19:56;146975.63;;;21.90;32.34
8280;BME280;8335;42.646;23.380;2023-02-23T07:22:23;147065.94;;;22.27;31.45
8280;BME280;8335;42.646;23.380;2023-02-23T07:24:53;147187.63;;;22.76;30.71
8280;BME280;8335;42.646;23.380;2023-02-23T07:27:21;147275.50;;;23.12;29.97
8280;BME280;8335;42.646;23.380;2023-02-23T07:29:48;147363.34;;;23.48;29.57
8280;BME280;8335;42.646;23.380;2023-02-23T07:32:15;147462.56;;;23.88;28.94
8280;BME280;8335;42.646;23.380;2023-02-23T07:34:41;147554.22;;;24.25;28.46
8280;BME280;8335;42.646;23.380;2023-02-23T07:37:09;147556.75;;;24.26;28.46
8280;BME280;8335;42.646;23.380;2023-02-23T07:39:36;147584.44;;;24.37;28.07
8280;BME280;8335;42.646;23.380;2023-02-23T07:42:03;147578.13;;;24.35;27.85
8280;BME280;8335;42.646;23.380;2023-02-23T07:44:31;147608.28;;;24.47;27.89
8280;BME280;8335;42.646;23.380;2023-02-23T07:46:57;147656.03;;;24.66;27.58
8280;BME280;8335;42.646;23.380;2023-02-23T07:49:24;147687.44;;;24.79;27.28
8280;BME280;8335;42.646;23.380;2023-02-23T07:51:51;147717.56;;;24.91;26.98
8280;BME280;8335;42.646;23.380;2023-02-23T07:54:17;147752.78;;;25.06;26.80
8280;BME280;8335;42.646;23.380;2023-02-23T07:56:46;147767.88;;;25.12;27.10
8280;BME280;8335;42.646;23.380;2023-02-23T07:59:13;147785.47;;;25.19;26.59
8280;BME280;8335;42.646;23.380;2023-02-23T08:01:41;147823.16;;;25.34;26.88
8280;BME280;8335;42.646;23.380;2023-02-23T08:04:08;147843.25;;;25.42;26.30
8280;BME280;8335;42.646;23.380;2023-02-23T08:06:35;147867.16;;;25.52;26.51
8280;BME280;8335;42.646;23.380;2023-02-23T08:09:03;147826.91;;;25.36;26.00
8280;BME280;8335;42.646;23.380;2023-02-23T08:11:30;147795.53;;;25.23;26.60
8280;BME280;8335;42.646;23.380;2023-02-23T08:13:57;147796.78;;;25.23;26.43
8280;BME280;8335;42.646;23.380;2023-02-23T08:16:26;147850.81;;;25.45;26.19
8280;BME280;8335;42.646;23.380;2023-02-23T08:18:55;147834.47;;;25.39;26.15
8280;BME280;8335;42.646;23.380;2023-02-23T08:21:22;147849.56;;;25.45;26.38
8280;BME280;8335;42.646;23.380;2023-02-23T08:23:49;147869.66;;;25.53;25.99
8280;BME280;8335;42.646;23.380;2023-02-23T08:26:16;147882.25;;;25.58;26.02
8280;BME280;8335;42.646;23.380;2023-02-23T08:28:43;147901.09;;;25.66;26.35
8280;BME280;8335;42.646;23.380;2023-02-23T08:31:11;147914.91;;;25.71;26.20
8280;BME280;8335;42.646;23.380;2023-02-23T08:33:39;147911.13;;;25.70;25.84
8280;BME280;8335;42.646;23.380;2023-02-23T08:36:07;147965.25;;;25.92;26.03
8280;BME280;8335;42.646;23.380;2023-02-23T08:38:35;147863.41;;;25.50;26.08
8280;BME280;8335;42.646;23.380;2023-02-23T08:41:02;147821.91;;;25.34;26.78
8280;BME280;8335;42.646;23.380;2023-02-23T08:43:29;147850.81;;;25.45;26.68
8280;BME280;8335;42.646;23.380;2023-02-23T08:45:56;147878.44;;;25.57;26.37
8280;BME280;8335;42.646;23.380;2023-02-23T08:48:23;147864.66;;;25.51;26.57
8280;BME280;8335;42.646;23.380;2023-02-23T08:50:54;147844.50;;;25.43;26.32
8280;BME280;8335;42.646;23.380;2023-02-23T08:53:23;147782.97;;;25.18;26.93
8280;BME280;8335;42.646;23.380;2023-02-23T08:55:54;147711.28;;;24.89;27.17
8280;BME280;8335;42.646;23.380;2023-02-23T08:58:21;147769.13;;;25.12;26.76
8280;BME280;8335;42.646;23.380;2023-02-23T09:00:48;147681.13;;;24.77;27.01
8280;BME280;8335;42.646;23.380;2023-02-23T09:03:15;147564.28;;;24.29;27.71
8280;BME280;8335;42.646;23.380;2023-02-23T09:05:41;147480.16;;;23.95;28.08
8280;BME280;8335;42.646;23.380;2023-02-23T09:08:08;147461.31;;;23.87;28.72
8280;BME280;8335;42.646;23.380;2023-02-23T09:10:38;147387.19;;;23.57;28.99
8280;BME280;8335;42.646;23.380;2023-02-23T09:13:05;147468.84;;;23.91;28.77
8280;BME280;8335;42.646;23.380;2023-02-23T09:15:32;147512.81;;;24.08;28.50
8280;BME280;8335;42.646;23.380;2023-02-23T09:17:59;147525.31;;;24.13;28.36
8280;BME280;8335;42.646;23.380;2023-02-23T09:20:27;147544.16;;;24.21;28.40
8280;BME280;8335;42.646;23.380;2023-02-23T09:22:54;147453.75;;;23.84;28.14
8280;BME280;8335;42.646;23.380;2023-02-23T09:25:21;147443.75;;;23.80;28.64
8280;BME280;8335;42.646;23.380;2023-02-23T09:27:50;147421.13;;;23.71;28.45
8280;BME280;8335;42.646;23.380;2023-02-23T09:30:18;147357.09;;;23.45;28.38
8280;BME280;8335;42.646;23.380;2023-02-23T09:32:46;147411.09;;;23.67;28.56
8280;BME280;8335;42.646;23.380;2023-02-23T09:35:13;147424.91;;;23.73;28.50
8280;BME280;8335;42.646;23.380;2023-02-23T09:37:42;147419.88;;;23.71;28.46
8280;BME280;8335;42.646;23.380;2023-02-23T09:40:13;147390.97;;;23.59;28.44
8280;BME280;8335;42.646;23.380;2023-02-23T09:42:45;147288.06;;;23.17;28.87
8280;BME280;8335;42.646;23.380;2023-02-23T09:45:26;147214.03;;;22.87;29.48
8280;BME280;8335;42.646;23.380;2023-02-23T09:48:12;147275.50;;;23.12;29.40
8280;BME280;8335;42.646;23.380;2023-02-23T09:50:44;147363.34;;;23.48;28.95
8280;BME280;8335;42.646;23.380;2023-02-23T09:56:10;147340.75;;;23.39;28.99
8280;BME280;8335;42.646;23.380;2023-02-23T09:58:39;147269.22;;;23.10;28.91
8280;BME280;8335;42.646;23.380;2023-02-23T10:01:50;147151.25;;;22.62;30.00
8280;BME280;8335;42.646;23.380;2023-02-23T10:04:23;147092.31;;;22.38;29.73
8280;BME280;8335;42.646;23.380;2023-02-23T10:06:57;147104.81;;;22.43;30.07
8280;BME280;8335;42.646;23.380;2023-02-23T10:09:37;147177.59;;;22.72;29.57
8280;BME280;8335;42.646;23.380;2023-02-23T10:12:09;147193.91;;;22.79;29.69
8280;BME280;8335;42.646;23.380;2023-02-23T10:15:01;147251.66;;;23.02;28.94
8280;BME280;8335;42.646;23.380;2023-02-23T10:17:37;147261.69;;;23.06;29.60
8280;BME280;8335;42.646;23.380;2023-02-23T10:20:16;147250.41;;;23.02;29.86
8280;BME280;8335;42.646;23.380;2023-02-23T10:22:47;147232.84;;;22.95;29.40
8280;BME280;8335;42.646;23.380;2023-02-23T10:25:18;147202.69;;;22.83;29.63
8280;BME280;8335;42.646;23.380;2023-02-23T10:27:48;147214.03;;;22.87;29.04
8280;BME280;8335;42.646;23.380;2023-02-23T10:30:18;147236.59;;;22.96;29.57
8280;BME280;8335;42.646;23.380;2023-02-23T10:32:51;147235.34;;;22.96;29.97
8280;BME280;8335;42.646;23.380;2023-02-23T10:35:21;147227.78;;;22.93;29.46
8280;BME280;8335;42.646;23.380;2023-02-23T10:37:49;147364.59;;;23.48;28.98
8280;BME280;8335;42.646;23.380;2023-02-23T10:40:18;147437.44;;;23.78;29.11
8280;BME280;8335;42.646;23.380;2023-02-23T10:42:45;147510.25;;;24.07;28.98
8280;BME280;8335;42.646;23.380;2023-02-23T10:45:16;147586.94;;;24.38;28.62
8280;BME280;8335;42.646;23.380;2023-02-23T10:47:51;147591.94;;;24.40;28.58
8280;BME280;8335;42.646;23.380;2023-02-23T10:50:20;147536.66;;;24.18;28.54
8280;BME280;8335;42.646;23.380;2023-02-23T10:52:53;147460.06;;;23.87;28.36
8280;BME280;8335;42.646;23.380;2023-02-23T10:55:24;147394.78;;;23.60;29.15
8280;BME280;8335;42.646;23.380;2023-02-23T10:58:09;147325.69;;;23.32;29.25
8280;BME280;8335;42.646;23.380;2023-02-23T11:00:50;147325.69;;;23.32;29.63
8280;BME280;8335;42.646;23.380;2023-02-23T11:03:24;147279.25;;;23.14;29.23
8280;BME280;8335;42.646;23.380;2023-02-23T11:05:51;147275.50;;;23.12;29.65
8280;BME280;8335;42.646;23.380;2023-02-23T11:08:24;147309.38;;;23.26;28.80
8280;BME280;8335;42.646;23.380;2023-02-23T11:11:06;147319.44;;;23.30;29.11
8280;BME280;8335;42.646;23.380;2023-02-23T11:13:37;147378.41;;;23.54;28.83
8280;BME280;8335;42.646;23.380;2023-02-23T11:16:07;147345.78;;;23.41;28.59
8280;BME280;8335;42.646;23.380;2023-02-23T11:18:38;147239.09;;;22.97;29.48
8280;BME280;8335;42.646;23.380;2023-02-23T11:21:11;147119.88;;;22.49;30.00
8280;BME280;8335;42.646;23.380;2023-02-23T11:23:39;147101.06;;;22.41;30.07
8280;BME280;8335;42.646;23.380;2023-02-23T11:26:20;147072.25;;;22.30;31.17
8280;BME280;8335;42.646;23.380;2023-02-23T11:28:51;146966.84;;;21.87;31.55
8280;BME280;8335;42.646;23.380;2023-02-23T11:31:21;146955.56;;;21.82;32.04
8280;BME280;8335;42.646;23.380;2023-02-23T11:33:55;146935.50;;;21.74;31.76
8280;BME280;8335;42.646;23.380;2023-02-23T11:36:27;146762.50;;;21.04;31.23
8280;BME280;8335;42.646;23.380;2023-02-23T11:39:06;146808.88;;;21.23;32.07
8280;BME280;8335;42.646;23.380;2023-02-23T11:41:34;146738.69;;;20.94;33.04
8280;BME280;8335;42.646;23.380;2023-02-23T11:44:02;146676.03;;;20.69;33.25
8280;BME280;8335;42.646;23.380;2023-02-23T11:46:31;146617.19;;;20.45;33.66
8280;BME280;8335;42.646;23.380;2023-02-23T11:49:02;146595.84;;;20.36;33.64
8280;BME280;8335;42.646;23.380;2023-02-23T11:51:32;146456.84;;;19.79;34.47
8280;BME280;8335;42.646;23.380;2023-02-23T11:54:01;146460.59;;;19.81;34.41
8280;BME280;8335;42.646;23.380;2023-02-23T11:56:31;146453.06;;;19.78;33.87
8280;BME280;8335;42.646;23.380;2023-02-23T11:59:00;146392.94;;;19.53;35.35
8280;BME280;8335;42.646;23.380;2023-02-23T12:01:37;146386.72;;;19.51;35.03
8280;BME280;8335;42.646;23.380;2023-02-23T12:04:22;146399.19;;;19.56;34.39
8280;BME280;8335;42.646;23.380;2023-02-23T12:06:55;146391.72;;;19.53;35.12
8280;BME280;8335;42.646;23.380;2023-02-23T12:09:43;146350.41;;;19.36;35.76
8280;BME280;8335;42.646;23.380;2023-02-23T12:12:15;146364.16;;;19.42;36.17
8280;BME280;8335;42.646;23.380;2023-02-23T12:14:47;146317.88;;;19.23;36.25
8280;BME280;8335;42.646;23.380;2023-02-23T12:17:20;146304.09;;;19.17;36.39
8280;BME280;8335;42.646;23.380;2023-02-23T12:19:57;146316.63;;;19.22;37.06
8280;BME280;8335;42.646;23.380;2023-02-23T12:22:28;146342.88;;;19.33;36.14
8280;BME280;8335;42.646;23.380;2023-02-23T12:25:01;146386.72;;;19.51;36.01
8280;BME280;8335;42.646;23.380;2023-02-23T12:27:33;146399.19;;;19.56;35.87
8280;BME280;8335;42.646;23.380;2023-02-23T12:30:11;146341.63;;;19.33;35.73
8280;BME280;8335;42.646;23.380;2023-02-23T12:32:44;146257.78;;;18.98;36.32
8280;BME280;8335;42.646;23.380;2023-02-23T12:35:17;146242.75;;;18.92;36.53
8280;BME280;8335;42.646;23.380;2023-02-23T12:37:47;146205.25;;;18.77;36.85
8280;BME280;8335;42.646;23.380;2023-02-23T12:40:22;146216.50;;;18.82;36.94
8280;BME280;8335;42.646;23.380;2023-02-23T12:42:58;146222.75;;;18.84;36.75
8280;BME280;8335;42.646;23.380;2023-02-23T12:45:32;146220.25;;;18.83;36.77
8280;BME280;8335;42.646;23.380;2023-02-23T12:48:11;146230.28;;;18.87;36.94
8280;BME280;8335;42.646;23.380;2023-02-23T12:50:45;146254.03;;;18.97;36.80
8280;BME280;8335;42.646;23.380;2023-02-23T12:53:20;146265.31;;;19.02;36.34
8280;BME280;8335;42.646;23.380;2023-02-23T12:56:00;146287.81;;;19.11;36.47
8280;BME280;8335;42.646;23.380;2023-02-23T12:58:36;146222.75;;;18.84;36.67
8280;BME280;8335;42.646;23.380;2023-02-23T13:01:07;146151.41;;;18.55;36.77
8280;BME280;8335;42.646;23.380;2023-02-23T13:03:51;146208.97;;;18.79;37.01
8280;BME280;8335;42.646;23.380;2023-02-23T13:06:28;146236.53;;;18.90;36.75
8280;BME280;8335;42.646;23.380;2023-02-23T13:09:15;146214.00;;;18.81;36.78
8280;BME280;8335;42.646;23.380;2023-02-23T13:12:06;146137.63;;;18.50;37.01
8280;BME280;8335;42.646;23.380;2023-02-23T13:14:44;146148.91;;;18.54;37.01
8280;BME280;8335;42.646;23.380;2023-02-23T13:17:29;146173.91;;;18.64;36.80
8280;BME280;8335;42.646;23.380;2023-02-23T13:20:00;146199.00;;;18.75;36.71
8280;BME280;8335;42.646;23.380;2023-02-23T13:22:34;146208.97;;;18.79;36.81
8280;BME280;8335;42.646;23.380;2023-02-23T13:25:26;146230.28;;;18.87;36.68
8280;BME280;8335;42.646;23.380;2023-02-23T13:27:57;146230.28;;;18.87;36.20
8280;BME280;8335;42.646;23.380;2023-02-23T13:30:25;146200.25;;;18.75;36.75
8280;BME280;8335;42.646;23.380;2023-02-23T13:32:53;146170.16;;;18.63;36.99
8280;BME280;8335;42.646;23.380;2023-02-23T13:35:20;146137.63;;;18.50;37.40
8280;BME280;8335;42.646;23.380;2023-02-23T13:37:51;146108.91;;;18.38;37.61
8280;BME280;8335;42.646;23.380;2023-02-23T13:40:28;146100.13;;;18.34;37.84
8280;BME280;8335;42.646;23.380;2023-02-23T13:43:05;146098.88;;;18.34;37.60